EWG2YR LFMN-EDDL
Flight info
| Callsign | EWG2YR |
|---|---|
| Flight time | 1h 29m |
| Altitude | 38000 |
| Route | IRMAR DCT KINES DCT VANAS DCT MOBLO DCT UBIMA DCT GILIR DCT PENDU DCT IXILU DCT GIVOR DCT SORAL DCT IBERA/N0413F320 DCT DIK/N0419F350 N853 ARCKY T853 NVO T857 BIKMU BIKMU1A |
| Aircraft | A20N/M-SDE2E3FGHIRWXY/LB1 |
Departure
| Time | 2026-05-04 07:01 |
|---|---|
| Airport | Nice-Côte d'Azur Airport (LFMN) |
Arrival
| Time | 2026-05-04 08:31 |
|---|---|
| Airport | Düsseldorf Airport (EDDL) |
| Time | Latitude | Longitude | Altitude | Speed | Heading |
|---|---|---|---|---|---|
| 2026-05-04 06:54 | 43.65447 | 7.20345 | 22 ft | 0 kts | 134° |
| 2026-05-04 06:57 | 43.65226 | 7.20367 | 22 ft | 1 kts | 139° |
| 2026-05-04 06:58 | 43.65204 | 7.20397 | 22 ft | 9 kts | 136° |
| 2026-05-04 06:58 | 43.65133 | 7.20473 | 24 ft | 16 kts | 162° |
| 2026-05-04 06:58 | 43.65013 | 7.20469 | 22 ft | 19 kts | 207° |
| 2026-05-04 06:58 | 43.64906 | 7.20343 | 22 ft | 19 kts | 226° |
| 2026-05-04 06:59 | 43.64832 | 7.20280 | 24 ft | 0 kts | 195° |
| 2026-05-04 07:01 | 43.65420 | 7.21262 | 26 ft | 149 kts | 44° |
| 2026-05-04 07:01 | 43.66149 | 7.22344 | 861 ft | 150 kts | 50° |
| 2026-05-04 07:02 | 43.66461 | 7.23778 | 1721 ft | 167 kts | 94° |
| 2026-05-04 07:02 | 43.65973 | 7.25257 | 2513 ft | 180 kts | 128° |
| 2026-05-04 07:02 | 43.65023 | 7.26499 | 3229 ft | 196 kts | 137° |
| 2026-05-04 07:02 | 43.63954 | 7.27815 | 3908 ft | 213 kts | 135° |
| 2026-05-04 07:03 | 43.62916 | 7.29301 | 4980 ft | 213 kts | 131° |
| 2026-05-04 07:03 | 43.61867 | 7.30734 | 6066 ft | 213 kts | 147° |
| 2026-05-04 07:03 | 43.60480 | 7.31410 | 7079 ft | 214 kts | 176° |
| 2026-05-04 07:03 | 43.59020 | 7.31022 | 8046 ft | 217 kts | 206° |
| 2026-05-04 07:04 | 43.57736 | 7.29927 | 9100 ft | 218 kts | 210° |
| 2026-05-04 07:04 | 43.56443 | 7.28797 | 10123 ft | 221 kts | 212° |
| 2026-05-04 07:04 | 43.55342 | 7.27301 | 11068 ft | 229 kts | 237° |
| 2026-05-04 07:04 | 43.54866 | 7.25164 | 11987 ft | 243 kts | 265° |
| 2026-05-04 07:05 | 43.55243 | 7.22859 | 12961 ft | 255 kts | 295° |
| 2026-05-04 07:05 | 43.56282 | 7.20835 | 13905 ft | 261 kts | 306° |
| 2026-05-04 07:05 | 43.57420 | 7.18910 | 14739 ft | 263 kts | 307° |
| 2026-05-04 07:05 | 43.58591 | 7.16950 | 15560 ft | 265 kts | 306° |
| 2026-05-04 07:06 | 43.61092 | 7.13128 | 17155 ft | 275 kts | 322° |
| 2026-05-04 07:06 | 43.62824 | 7.11938 | 17898 ft | 283 kts | 340° |
| 2026-05-04 07:06 | 43.64760 | 7.11106 | 18329 ft | 302 kts | 340° |
| 2026-05-04 07:07 | 43.66842 | 7.10203 | 18530 ft | 325 kts | 340° |
| 2026-05-04 07:08 | 43.84538 | 7.02388 | 21718 ft | 407 kts | 340° |
| 2026-05-04 07:09 | 43.87248 | 7.01182 | 22341 ft | 412 kts | 340° |
| 2026-05-04 07:09 | 43.89996 | 6.99957 | 22979 ft | 416 kts | 340° |
| 2026-05-04 07:09 | 43.92758 | 6.98726 | 23641 ft | 419 kts | 340° |
| 2026-05-04 07:09 | 43.95550 | 6.97480 | 24178 ft | 423 kts | 340° |
| 2026-05-04 07:10 | 43.98371 | 6.96219 | 24740 ft | 426 kts | 340° |
| 2026-05-04 07:10 | 44.01205 | 6.94952 | 25272 ft | 429 kts | 340° |
| 2026-05-04 07:12 | 44.22083 | 6.87902 | 28599 ft | 457 kts | 351° |
| 2026-05-04 07:12 | 44.25258 | 6.87418 | 29013 ft | 460 kts | 351° |
| 2026-05-04 07:12 | 44.28456 | 6.86929 | 29400 ft | 464 kts | 351° |
| 2026-05-04 07:12 | 44.31676 | 6.86438 | 29817 ft | 466 kts | 351° |
| 2026-05-04 07:13 | 44.34920 | 6.85945 | 30203 ft | 470 kts | 351° |
| 2026-05-04 07:13 | 44.38178 | 6.85449 | 30562 ft | 472 kts | 351° |
| 2026-05-04 07:13 | 44.41454 | 6.84952 | 30959 ft | 474 kts | 351° |
| 2026-05-04 07:14 | 44.54562 | 6.82958 | 32806 ft | 473 kts | 351° |
| 2026-05-04 07:14 | 44.57842 | 6.82457 | 33251 ft | 473 kts | 350° |
| 2026-05-04 07:15 | 44.61113 | 6.81957 | 33694 ft | 472 kts | 350° |
| 2026-05-04 07:15 | 44.64387 | 6.81455 | 34108 ft | 472 kts | 350° |
| 2026-05-04 07:15 | 44.67656 | 6.80954 | 34490 ft | 471 kts | 350° |
| 2026-05-04 07:15 | 44.70909 | 6.80455 | 34897 ft | 469 kts | 350° |
| 2026-05-04 07:16 | 44.74149 | 6.79957 | 35283 ft | 467 kts | 350° |
| 2026-05-04 07:16 | 44.77378 | 6.79461 | 35678 ft | 466 kts | 350° |
| 2026-05-04 07:16 | 44.80603 | 6.79010 | 36045 ft | 466 kts | 353° |
| 2026-05-04 07:16 | 44.83803 | 6.78808 | 36356 ft | 466 kts | 354° |
| 2026-05-04 07:17 | 44.87055 | 6.78596 | 36716 ft | 465 kts | 353° |
| 2026-05-04 07:17 | 44.90284 | 6.78382 | 37094 ft | 463 kts | 353° |
| 2026-05-04 07:17 | 44.93490 | 6.78171 | 37451 ft | 461 kts | 353° |
| 2026-05-04 07:17 | 44.96692 | 6.77959 | 37801 ft | 458 kts | 353° |
| 2026-05-04 07:18 | 44.99876 | 6.77748 | 38082 ft | 458 kts | 353° |
| 2026-05-04 07:18 | 45.03065 | 6.77536 | 38115 ft | 459 kts | 353° |
| 2026-05-04 07:18 | 45.09393 | 6.77116 | 38118 ft | 456 kts | 353° |
| 2026-05-04 07:19 | 45.14718 | 6.76762 | 38100 ft | 457 kts | 353° |
| 2026-05-04 07:19 | 45.21033 | 6.76342 | 38092 ft | 457 kts | 353° |
| 2026-05-04 07:20 | 45.27408 | 6.75915 | 38094 ft | 458 kts | 353° |
| 2026-05-04 07:20 | 45.33763 | 6.75491 | 38081 ft | 457 kts | 353° |
| 2026-05-04 07:22 | 45.59142 | 6.73771 | 38064 ft | 457 kts | 353° |
| 2026-05-04 07:23 | 45.65500 | 6.73334 | 38024 ft | 456 kts | 354° |
| 2026-05-04 07:23 | 45.71863 | 6.72896 | 38035 ft | 458 kts | 353° |
| 2026-05-04 07:24 | 45.78242 | 6.72456 | 38048 ft | 459 kts | 353° |
| 2026-05-04 07:24 | 45.84595 | 6.72020 | 38034 ft | 460 kts | 353° |
| 2026-05-04 07:26 | 46.10248 | 6.70140 | 38026 ft | 460 kts | 349° |
| 2026-05-04 07:27 | 46.16455 | 6.68212 | 38026 ft | 455 kts | 338° |
| 2026-05-04 07:27 | 46.22452 | 6.65311 | 38022 ft | 453 kts | 338° |
| 2026-05-04 07:28 | 46.28448 | 6.62427 | 38019 ft | 454 kts | 337° |
| 2026-05-04 07:28 | 46.34438 | 6.59516 | 38026 ft | 454 kts | 337° |
| 2026-05-04 07:29 | 46.40396 | 6.56605 | 38030 ft | 454 kts | 337° |
| 2026-05-04 07:29 | 46.46406 | 6.53661 | 38032 ft | 454 kts | 337° |
| 2026-05-04 07:30 | 46.52387 | 6.50724 | 38031 ft | 454 kts | 337° |
| 2026-05-04 07:30 | 46.58379 | 6.47775 | 38035 ft | 455 kts | 337° |
| 2026-05-04 07:31 | 46.64367 | 6.44822 | 38033 ft | 457 kts | 337° |
| 2026-05-04 07:33 | 46.88487 | 6.32851 | 38053 ft | 458 kts | 337° |
| 2026-05-04 07:33 | 46.94524 | 6.29837 | 38049 ft | 457 kts | 337° |
| 2026-05-04 07:34 | 47.00526 | 6.26834 | 38047 ft | 457 kts | 337° |
| 2026-05-04 07:34 | 47.06500 | 6.23707 | 38042 ft | 454 kts | 332° |
| 2026-05-04 07:35 | 47.12173 | 6.19681 | 38040 ft | 452 kts | 329° |
| 2026-05-04 07:35 | 47.17836 | 6.15620 | 38028 ft | 452 kts | 329° |
| 2026-05-04 07:36 | 47.23495 | 6.11541 | 38034 ft | 453 kts | 329° |
| 2026-05-04 07:38 | 47.44786 | 6.03516 | 38029 ft | 467 kts | 358° |
| 2026-05-04 07:38 | 47.47989 | 6.03580 | 38030 ft | 467 kts | 358° |
| 2026-05-04 07:38 | 47.54497 | 6.03705 | 38036 ft | 468 kts | 358° |
| 2026-05-04 07:39 | 47.61019 | 6.03846 | 38044 ft | 469 kts | 358° |
| 2026-05-04 07:39 | 47.67545 | 6.03991 | 38045 ft | 469 kts | 358° |
| 2026-05-04 07:40 | 47.74080 | 6.04516 | 38048 ft | 472 kts | 6° |
| 2026-05-04 07:40 | 47.80514 | 6.06618 | 38049 ft | 474 kts | 12° |
| 2026-05-04 07:41 | 47.86929 | 6.09001 | 38044 ft | 475 kts | 12° |
| 2026-05-04 07:41 | 47.93342 | 6.11393 | 38039 ft | 475 kts | 12° |
| 2026-05-04 07:42 | 47.99765 | 6.13814 | 38036 ft | 476 kts | 12° |
| 2026-05-04 07:42 | 48.06141 | 6.16228 | 38045 ft | 476 kts | 12° |
| 2026-05-04 07:43 | 48.12569 | 6.18668 | 38036 ft | 476 kts | 12° |
| 2026-05-04 07:43 | 48.18990 | 6.21112 | 38029 ft | 476 kts | 12° |
| 2026-05-04 07:44 | 48.25414 | 6.23562 | 38027 ft | 476 kts | 12° |
| 2026-05-04 07:44 | 48.31796 | 6.26004 | 38022 ft | 476 kts | 12° |
| 2026-05-04 07:45 | 48.38226 | 6.28470 | 38028 ft | 476 kts | 12° |
| 2026-05-04 07:45 | 48.44642 | 6.30936 | 38021 ft | 475 kts | 12° |
| 2026-05-04 07:46 | 48.51061 | 6.33410 | 38012 ft | 476 kts | 12° |
| 2026-05-04 07:46 | 48.57433 | 6.35873 | 38027 ft | 476 kts | 12° |
| 2026-05-04 07:47 | 48.63864 | 6.38340 | 38009 ft | 475 kts | 10° |
| 2026-05-04 07:49 | 48.90022 | 6.41586 | 38023 ft | 473 kts | 1° |
| 2026-05-04 07:49 | 48.96589 | 6.42255 | 38013 ft | 473 kts | 1° |
| 2026-05-04 07:50 | 49.03162 | 6.42925 | 38016 ft | 473 kts | 1° |
| 2026-05-04 07:50 | 49.09749 | 6.43191 | 38013 ft | 470 kts | 353° |
| 2026-05-04 07:51 | 49.16136 | 6.41749 | 38027 ft | 466 kts | 342° |
| 2026-05-04 07:51 | 49.22395 | 6.39202 | 38027 ft | 465 kts | 341° |
| 2026-05-04 07:52 | 49.28657 | 6.36669 | 38039 ft | 465 kts | 341° |
| 2026-05-04 07:52 | 49.34910 | 6.34104 | 38016 ft | 465 kts | 341° |
| 2026-05-04 07:54 | 49.59895 | 6.23791 | 38027 ft | 465 kts | 341° |
| 2026-05-04 07:55 | 49.66146 | 6.21230 | 38025 ft | 465 kts | 341° |
| 2026-05-04 07:55 | 49.72408 | 6.18654 | 38021 ft | 465 kts | 341° |
| 2026-05-04 07:56 | 49.78655 | 6.16076 | 38015 ft | 464 kts | 341° |
| 2026-05-04 07:56 | 49.84927 | 6.13635 | 37995 ft | 467 kts | 347° |
| 2026-05-04 07:57 | 49.91413 | 6.13041 | 37985 ft | 472 kts | 357° |
| 2026-05-04 07:57 | 49.97996 | 6.13065 | 37983 ft | 473 kts | 357° |
| 2026-05-04 07:58 | 50.04587 | 6.13084 | 37993 ft | 474 kts | 357° |
| 2026-05-04 07:58 | 50.11243 | 6.13114 | 37991 ft | 479 kts | 357° |
| 2026-05-04 07:59 | 50.17853 | 6.13153 | 37990 ft | 478 kts | 357° |
| 2026-05-04 07:59 | 50.24516 | 6.13191 | 37991 ft | 478 kts | 357° |
| 2026-05-04 08:00 | 50.27846 | 6.13525 | 37991 ft | 482 kts | 8° |
| 2026-05-04 08:00 | 50.31093 | 6.14889 | 37988 ft | 485 kts | 21° |
| 2026-05-04 08:00 | 50.34119 | 6.17267 | 37992 ft | 486 kts | 32° |
| 2026-05-04 08:02 | 50.53926 | 6.37611 | 37974 ft | 486 kts | 29° |
| 2026-05-04 08:02 | 50.59804 | 6.42890 | 37973 ft | 486 kts | 29° |
| 2026-05-04 08:03 | 50.65627 | 6.48203 | 37979 ft | 486 kts | 30° |
| 2026-05-04 08:03 | 50.71464 | 6.53601 | 37986 ft | 487 kts | 30° |
| 2026-05-04 08:04 | 50.77314 | 6.59034 | 37981 ft | 487 kts | 30° |
| 2026-05-04 08:04 | 50.83463 | 6.63497 | 37984 ft | 485 kts | 13° |
| 2026-05-04 08:05 | 50.90050 | 6.65287 | 37988 ft | 482 kts | 5° |
| 2026-05-04 08:05 | 50.96714 | 6.66729 | 37997 ft | 483 kts | 5° |
| 2026-05-04 08:06 | 51.03364 | 6.67806 | 38003 ft | 480 kts | 356° |
| 2026-05-04 08:06 | 51.08920 | 6.67591 | 38006 ft | 482 kts | 0° |
| 2026-05-04 08:08 | 51.30952 | 6.79963 | 37994 ft | 491 kts | 45° |
| 2026-05-04 08:08 | 51.33151 | 6.84133 | 37998 ft | 490 kts | 58° |
| 2026-05-04 08:10 | 51.28349 | 7.19769 | 37994 ft | 426 kts | 161° |
| 2026-05-04 08:11 | 51.25620 | 7.21306 | 37991 ft | 417 kts | 173° |
| 2026-05-04 08:11 | 51.19973 | 7.21120 | 37998 ft | 402 kts | 199° |
| 2026-05-04 08:11 | 51.17400 | 7.19416 | 38000 ft | 399 kts | 212° |
| 2026-05-04 08:12 | 51.15198 | 7.16775 | 38002 ft | 397 kts | 225° |
| 2026-05-04 08:12 | 51.13474 | 7.13333 | 38004 ft | 399 kts | 238° |
| 2026-05-04 08:12 | 51.12337 | 7.09300 | 37992 ft | 403 kts | 251° |
| 2026-05-04 08:12 | 51.11856 | 7.04875 | 37975 ft | 410 kts | 264° |
| 2026-05-04 08:13 | 51.12337 | 6.95715 | 37983 ft | 418 kts | 273° |
| 2026-05-04 08:13 | 51.12732 | 6.91202 | 37782 ft | 416 kts | 273° |
| 2026-05-04 08:13 | 51.13142 | 6.86655 | 37274 ft | 414 kts | 273° |
| 2026-05-04 08:14 | 51.13553 | 6.82118 | 36638 ft | 413 kts | 274° |
| 2026-05-04 08:14 | 51.13963 | 6.77599 | 35863 ft | 410 kts | 274° |
| 2026-05-04 08:14 | 51.14448 | 6.73117 | 34863 ft | 413 kts | 281° |
| 2026-05-04 08:16 | 51.16447 | 6.43970 | 27125 ft | 384 kts | 231° |
| 2026-05-04 08:16 | 51.14545 | 6.41024 | 26074 ft | 380 kts | 217° |
| 2026-05-04 08:16 | 51.12223 | 6.39044 | 25102 ft | 379 kts | 201° |
| 2026-05-04 08:17 | 51.09697 | 6.38045 | 24220 ft | 376 kts | 193° |
| 2026-05-04 08:17 | 51.07087 | 6.37786 | 23308 ft | 377 kts | 178° |
| 2026-05-04 08:17 | 51.04535 | 6.38753 | 22260 ft | 380 kts | 161° |
| 2026-05-04 08:17 | 51.02248 | 6.40911 | 21226 ft | 386 kts | 144° |
| 2026-05-04 08:19 | 51.01282 | 6.68959 | 14992 ft | 379 kts | 79° |
| 2026-05-04 08:19 | 51.01886 | 6.73012 | 14173 ft | 375 kts | 79° |
| 2026-05-04 08:20 | 51.02491 | 6.77035 | 13319 ft | 372 kts | 79° |
| 2026-05-04 08:20 | 51.03082 | 6.80999 | 12479 ft | 367 kts | 79° |
| 2026-05-04 08:20 | 51.03651 | 6.84929 | 11680 ft | 362 kts | 79° |
| 2026-05-04 08:20 | 51.04193 | 6.88782 | 11209 ft | 357 kts | 79° |
| 2026-05-04 08:21 | 51.04722 | 6.92628 | 11038 ft | 360 kts | 79° |
| 2026-05-04 08:21 | 51.05454 | 6.96421 | 11000 ft | 361 kts | 63° |
| 2026-05-04 08:21 | 51.06925 | 6.99611 | 10915 ft | 358 kts | 42° |
| 2026-05-04 08:21 | 51.08963 | 7.01798 | 10478 ft | 351 kts | 21° |
| 2026-05-04 08:22 | 51.11291 | 7.02630 | 10134 ft | 332 kts | 359° |
| 2026-05-04 08:22 | 51.13531 | 7.02781 | 9968 ft | 313 kts | 1° |
| 2026-05-04 08:24 | 51.27596 | 7.03569 | 7043 ft | 278 kts | 348° |
| 2026-05-04 08:24 | 51.29483 | 7.03049 | 6659 ft | 269 kts | 348° |
| 2026-05-04 08:24 | 51.31267 | 7.02553 | 6504 ft | 251 kts | 348° |
| 2026-05-04 08:24 | 51.32942 | 7.02105 | 6371 ft | 235 kts | 348° |
| 2026-05-04 08:25 | 51.34499 | 7.01705 | 6238 ft | 220 kts | 348° |
| 2026-05-04 08:25 | 51.35961 | 7.01338 | 6121 ft | 206 kts | 349° |
| 2026-05-04 08:25 | 51.37309 | 7.00805 | 5943 ft | 195 kts | 327° |
| 2026-05-04 08:25 | 51.38137 | 6.99259 | 5510 ft | 187 kts | 281° |
| 2026-05-04 08:26 | 51.38075 | 6.97331 | 5383 ft | 162 kts | 252° |
| 2026-05-04 08:27 | 51.34000 | 6.87862 | 2172 ft | 142 kts | 233° |
| 2026-05-04 08:28 | 51.33410 | 6.86574 | 1682 ft | 145 kts | 232° |
| 2026-05-04 08:28 | 51.32807 | 6.85316 | 1355 ft | 137 kts | 231° |
| 2026-05-04 08:28 | 51.32253 | 6.84176 | 1167 ft | 123 kts | 231° |
| 2026-05-04 08:28 | 51.31715 | 6.83074 | 993 ft | 127 kts | 231° |
| 2026-05-04 08:29 | 51.31189 | 6.81957 | 831 ft | 126 kts | 231° |
| 2026-05-04 08:29 | 51.30662 | 6.80845 | 651 ft | 125 kts | 231° |
| 2026-05-04 08:29 | 51.30121 | 6.79743 | 407 ft | 130 kts | 231° |
| 2026-05-04 08:31 | 51.27890 | 6.76214 | 126 ft | 20 kts | 101° |
| 2026-05-04 08:33 | 51.27885 | 6.76250 | 128 ft | 0 kts | 101° |